ESGG/GOT METAR and TAF weather

Enter ICAO airport designator
Station Type Date Time Source
ESGG METAR 2019/04/21 21:50 UTC NOAA

ESGG 212150Z 36003KT CAVOK 10/M02 Q1021


Station Type Date Time Source
ESGG Decoded METAR 2019/04/21 21:50 UTC NOAA

Goteborg / Landvetter, Sweden (ESGG) 57-40N 012-18E
Apr 21, 2019 - 05:50 PM EDT / 2019.04.21 2150 UTC
Wind: from the N (360 degrees) at 3 MPH (3 KT):0
Visibility: greater than 7 mile(s):0
Temperature: 50 F (10 C)
Dew Point: 28 F (-2 C)
Relative Humidity: 42%
Pressure (altimeter): 30.15 in. Hg (1021 hPa)
ob: ESGG 212150Z 36003KT CAVOK 10/M02 Q1021
cycle: 22

Station Type Date Time Source
ESGG TAF 2019/04/21 18:34 UTC NOAA

TAF ESGG 211730Z 2118/2218 29005KT CAVOK

Example: see airport list